Acaiaca, Brazil
Current Conditions -  °F | °C
As of 2:00 PM on Friday 28 Nov 2014 (Local Time) from SBPR Reporting Station
Rain Showers Rain Showers  
Wind Chill: 81°   Ceiling: 2500
Heat Index: 83°   Visibility: 6mi
Dew Point: 68°   Wind: 10mph
Humidity: 65%   Direction: 340°NNW
Pressure: 30.06"   Gusts: NA
Location:  20.36°S, 43.14°W
Report Text: SBPR 281600Z 34009KT 9999 VCSH BKN025 FEW030TCU 27/20 Q1018
Loading
Personal Weather Stations






























Interactive Weather Map New forecast layout! Learn more

10-Day Weather Forecast

Advertisements
Track Severe Weather on mobile